Time;durP1;ratioP1;P1;durP2;ratioP2;P2;SDS_P1;SDS_P2;PMS_P1;PMS_P2;Temp;Humidity;BMP_temperature;BMP_pressure;BME280_temperature;BME280_humidity;BME280_pressure;Samples;Min_cycle;Max_cycle;Signal;HPM_P1;HPM_P2
2022/04/30 00:02:21;;;;;;;21.38;14.27;;;;;;;7.75;100.00;100653.25;5002005;28;20546;-84
2022/04/30 00:04:47;;;;;;;26.98;14.77;;;;;;;7.80;100.00;100656.28;5011877;28;20052;-85
2022/04/30 00:07:18;;;;;;;24.83;14.48;;;;;;;7.83;100.00;100674.28;5014454;28;20034;-85
2022/04/30 00:09:45;;;;;;;30.75;14.60;;;;;;;7.80;100.00;100661.50;5010043;28;20034;-84
2022/04/30 00:12:11;;;;;;;23.48;15.15;;;;;;;7.79;100.00;100666.88;5018221;28;20361;-84
2022/04/30 00:14:39;;;;;;;22.40;12.80;;;;;;;7.71;100.00;100664.94;5011014;28;20078;-83
2022/04/30 00:17:06;;;;;;;22.90;13.82;;;;;;;7.64;100.00;100653.34;5020437;28;20033;-83
2022/04/30 00:19:33;;;;;;;22.77;12.50;;;;;;;7.66;100.00;100661.88;5015037;28;20049;-83
2022/04/30 00:21:58;;;;;;;19.65;12.43;;;;;;;7.54;100.00;100654.19;5010942;28;20469;-84
2022/04/30 00:24:26;;;;;;;22.52;12.55;;;;;;;7.70;100.00;100660.69;5001530;28;20044;-84
2022/04/30 00:26:52;;;;;;;21.05;11.93;;;;;;;7.81;100.00;100657.91;5011037;28;20387;-84
2022/04/30 00:29:18;;;;;;;19.55;12.07;;;;;;;7.77;100.00;100646.09;5017573;28;20129;-84
2022/04/30 00:31:43;;;;;;;23.48;12.55;;;;;;;7.78;100.00;100652.97;4998731;28;20026;-84
2022/04/30 00:34:09;;;;;;;16.35;11.18;;;;;;;7.81;100.00;100652.69;5012018;28;20388;-85
2022/04/30 00:36:36;;;;;;;18.45;12.07;;;;;;;7.74;100.00;100641.16;5011494;28;20026;-84
2022/04/30 00:39:02;;;;;;;20.20;11.55;;;;;;;7.78;100.00;100652.97;5002726;28;20427;-84
2022/04/30 00:41:32;;;;;;;19.67;11.88;;;;;;;7.63;100.00;100626.41;5011603;28;20056;-85
2022/04/30 00:44:01;;;;;;;20.02;12.48;;;;;;;7.78;100.00;100645.13;5008167;28;20045;-85
2022/04/30 00:46:28;;;;;;;20.63;11.82;;;;;;;7.77;100.00;100646.09;5007373;28;20030;-85
2022/04/30 00:48:54;;;;;;;21.05;12.77;;;;;;;7.76;100.00;100639.22;5009885;28;20068;-86
2022/04/30 00:51:28;;;;;;;21.20;12.50;;;;;;;7.81;100.00;100639.63;5015645;28;20057;-84
2022/04/30 00:53:56;;;;;;;21.88;11.95;;;;;;;7.64;100.00;100622.00;5015935;28;20038;-86
2022/04/30 00:57:01;;;;;;;19.10;12.02;;;;;;;7.40;100.00;100595.31;5004097;28;20030;-84
2022/04/30 00:59:42;;;;;;;19.75;11.48;;;;;;;7.07;100.00;100554.66;5004294;28;20404;-86
2022/04/30 01:02:11;;;;;;;19.05;11.95;;;;;;;7.43;100.00;100618.53;5004830;28;20125;-85
2022/04/30 01:04:59;;;;;;;18.20;11.38;;;;;;;6.90;100.00;100549.16;5004775;28;20361;-85
2022/04/30 01:07:28;;;;;;;21.98;11.95;;;;;;;7.34;100.00;100618.53;5022962;28;20050;-86
2022/04/30 01:09:57;;;;;;;18.98;12.00;;;;;;;7.31;100.00;100634.47;4996348;28;20428;-84
2022/04/30 01:12:30;;;;;;;22.55;12.98;;;;;;;7.35;100.00;100633.25;5020345;28;20021;-85
2022/04/30 01:15:00;;;;;;;25.88;12.65;;;;;;;7.41;100.00;100627.47;5004264;28;20038;-85
2022/04/30 01:17:32;;;;;;;21.85;12.05;;;;;;;6.94;100.00;100554.91;5020847;28;20496;-85
2022/04/30 01:19:59;;;;;;;20.65;12.00;;;;;;;7.38;100.00;100614.69;5008163;28;20056;-87
2022/04/30 01:22:56;;;;;;;16.00;11.02;;;;;;;7.45;100.00;100620.19;5001480;28;20516;-86
2022/04/30 01:25:30;;;;;;;16.42;10.90;;;;;;;7.44;100.00;100603.69;5004759;28;20520;-86
2022/04/30 01:27:59;;;;;;;24.20;11.07;;;;;;;7.41;100.00;100593.50;5017809;28;20033;-86
2022/04/30 01:30:24;;;;;;;26.80;11.30;;;;;;;7.37;100.00;100613.03;5015837;28;20053;-87
2022/04/30 01:38:54;;;;;;;18.50;11.48;;;;;;;6.75;100.00;100513.94;5014629;28;20141;-84
2022/04/30 01:41:27;;;;;;;18.80;11.30;;;;;;;6.89;100.00;100531.00;5017257;28;20063;-85
2022/04/30 01:44:35;;;;;;;17.08;10.55;;;;;;;6.77;100.00;100519.84;5003796;28;20034;-85
2022/04/30 01:47:17;;;;;;;19.35;11.45;;;;;;;7.05;100.00;100562.66;4990673;28;20029;-83
2022/04/30 01:49:44;;;;;;;19.85;11.05;;;;;;;7.35;100.00;100596.66;5021775;28;20353;-84
2022/04/30 01:52:15;;;;;;;19.17;10.40;;;;;;;7.43;100.00;100602.03;5014702;28;20026;-84
2022/04/30 01:54:49;;;;;;;14.93;10.15;;;;;;;7.43;100.00;100586.34;5003061;28;20030;-85
2022/04/30 01:57:22;;;;;;;15.20;9.70;;;;;;;7.22;100.00;100558.56;5014816;28;20391;-83
2022/04/30 02:00:26;;;;;;;21.25;10.95;;;;;;;7.06;100.00;100526.91;5003151;28;20110;-83
2022/04/30 02:02:54;;;;;;;17.35;10.10;;;;;;;7.40;100.00;100566.56;5003392;28;20036;-84
2022/04/30 02:05:20;;;;;;;18.83;10.00;;;;;;;7.43;100.00;100570.69;5002537;28;20133;-83
2022/04/30 02:08:05;;;;;;;16.90;10.02;;;;;;;7.47;100.00;100590.38;5019658;28;20030;-84
2022/04/30 02:10:41;;;;;;;18.60;10.13;;;;;;;7.38;100.00;100572.88;4990313;28;20428;-85
2022/04/30 02:13:13;;;;;;;15.50;10.02;;;;;;;7.41;100.00;100567.38;5021748;28;20569;-84
2022/04/30 02:15:41;;;;;;;15.02;9.75;;;;;;;7.62;100.00;100589.94;5018740;28;20118;-85
2022/04/30 02:18:12;;;;;;;15.32;9.98;;;;;;;7.62;100.00;100579.50;5002712;28;20050;-85
2022/04/30 02:20:44;;;;;;;17.27;10.57;;;;;;;7.71;100.00;100589.16;5014028;28;20025;-86
2022/04/30 02:23:11;;;;;;;16.17;10.02;;;;;;;7.66;100.00;100565.19;5012980;28;20499;-85
2022/04/30 02:25:38;;;;;;;19.67;10.55;;;;;;;7.64;100.00;100567.13;5012885;28;20057;-84
2022/04/30 02:28:06;;;;;;;16.60;10.38;;;;;;;7.42;100.00;100537.69;5004276;28;20476;-84
2022/04/30 02:30:35;;;;;;;14.68;9.45;;;;;;;7.52;100.00;100564.66;5021848;28;20033;-86
2022/04/30 02:33:12;;;;;;;15.55;10.00;;;;;;;7.50;100.00;100576.19;5001282;28;20105;-85
2022/04/30 02:35:39;;;;;;;14.82;9.80;;;;;;;7.33;100.00;100538.50;5003355;28;20026;-86
2022/04/30 02:38:08;;;;;;;18.13;9.35;;;;;;;7.36;100.00;100553.91;5002066;28;20048;-85
2022/04/30 02:40:35;;;;;;;13.18;8.90;;;;;;;7.41;100.00;100552.53;4999887;28;20033;-85
2022/04/30 02:43:06;;;;;;;14.18;8.85;;;;;;;7.46;100.00;100559.13;5004762;28;20054;-83
2022/04/30 02:45:33;;;;;;;13.90;8.23;;;;;;;7.47;100.00;100572.09;5020332;28;20362;-84
2022/04/30 02:47:59;;;;;;;12.98;8.40;;;;;;;7.45;100.00;100563.53;5004929;28;20040;-85
2022/04/30 02:50:36;;;;;;;18.40;10.60;;;;;;;7.11;100.00;100551.66;5023201;28;20034;-84
2022/04/30 02:53:03;;;;;;;21.77;11.90;;;;;;;7.32;100.00;100563.78;5013357;28;20072;-85
2022/04/30 02:55:29;;;;;;;21.15;12.30;;;;;;;7.23;100.00;100549.75;5013432;28;20052;-85
2022/04/30 03:00:43;;;;;;;19.25;10.05;;;;;;;7.23;100.00;100560.19;5012293;28;20084;-85
2022/04/30 03:03:17;;;;;;;19.55;11.25;;;;;;;7.14;100.00;100555.81;4995469;28;20044;-85
2022/04/30 03:05:58;;;;;;;25.48;13.73;;;;;;;6.92;100.00;100547.22;5013149;28;20025;-85
2022/04/30 03:08:26;;;;;;;21.25;13.75;;;;;;;7.15;100.00;100565.28;5004524;28;20040;-84
2022/04/30 03:10:56;;;;;;;23.75;13.45;;;;;;;7.11;100.00;100566.53;5004491;28;20034;-87
2022/04/30 03:13:24;;;;;;;27.27;14.43;;;;;;;6.97;100.00;100546.81;5012827;28;20046;-85
2022/04/30 03:15:51;;;;;;;25.17;14.38;;;;;;;7.10;100.00;100554.44;5005254;28;20030;-85
2022/04/30 03:23:32;;;;;;;27.55;14.40;;;;;;;7.21;100.00;100556.91;5003155;28;20075;-85
2022/04/30 03:25:58;;;;;;;25.52;13.82;;;;;;;7.19;100.00;100547.56;4994298;28;20041;-86
2022/04/30 03:28:24;;;;;;;23.15;13.73;;;;;;;7.11;100.00;100541.22;5017346;28;20038;-85
2022/04/30 03:30:50;;;;;;;23.80;12.90;;;;;;;7.08;100.00;100535.47;5014575;28;20112;-85
2022/04/30 03:33:16;;;;;;;25.58;13.60;;;;;;;6.98;100.00;100504.91;5012233;28;20054;-84
2022/04/30 03:35:42;;;;;;;25.85;14.23;;;;;;;7.32;100.00;100536.88;5022399;28;20029;-85
2022/04/30 03:38:09;;;;;;;28.13;14.98;;;;;;;7.33;100.00;100548.97;5017106;28;20440;-85
2022/04/30 03:40:35;;;;;;;31.40;14.43;;;;;;;7.15;100.00;100544.41;5001169;28;20487;-85
2022/04/30 03:43:06;;;;;;;23.30;13.32;;;;;;;6.95;100.00;100531.31;5011831;28;20026;-85
2022/04/30 03:45:31;;;;;;;22.92;12.43;;;;;;;7.19;100.00;100537.13;5005310;28;20036;-86
2022/04/30 03:48:00;;;;;;;20.92;12.45;;;;;;;7.22;100.00;100531.63;5002874;28;20484;-86
2022/04/30 03:50:26;;;;;;;20.25;11.75;;;;;;;7.24;100.00;100520.06;5012913;28;20067;-86
2022/04/30 03:52:52;;;;;;;18.10;11.93;;;;;;;7.32;100.00;100534.25;5014855;28;20061;-84
2022/04/30 03:55:18;;;;;;;20.60;11.32;;;;;;;7.28;100.00;100531.91;5002809;28;20030;-85
2022/04/30 03:57:43;;;;;;;20.20;11.63;;;;;;;7.32;100.00;100522.00;5021348;28;20036;-85
2022/04/30 04:00:10;;;;;;;17.80;11.45;;;;;;;7.31;100.00;100524.75;5010460;28;20040;-85
2022/04/30 04:02:42;;;;;;;17.48;10.48;;;;;;;7.32;100.00;100521.19;5012899;28;20029;-85
2022/04/30 04:05:10;;;;;;;19.15;10.77;;;;;;;7.34;100.00;100514.03;5021481;28;20033;-86
2022/04/30 04:07:40;;;;;;;19.58;11.93;;;;;;;7.32;100.00;100511.56;4984793;28;20030;-86
2022/04/30 04:10:06;;;;;;;20.17;10.98;;;;;;;7.38;100.00;100515.41;5012404;28;20476;-85
2022/04/30 04:12:32;;;;;;;20.75;10.20;;;;;;;7.37;100.00;100517.22;5012003;28;20049;-86
2022/04/30 04:17:42;;;;;;;20.77;11.48;;;;;;;7.32;100.00;100505.53;5003963;28;20033;-86
2022/04/30 04:20:09;;;;;;;18.45;10.98;;;;;;;7.34;100.00;100507.00;5012194;28;20480;-85
2022/04/30 04:22:36;;;;;;;20.15;11.15;;;;;;;7.41;100.00;100502.91;4986420;28;20460;-86
2022/04/30 04:27:47;;;;;;;21.30;10.75;;;;;;;7.53;100.00;100513.19;5011605;28;20030;-86
2022/04/30 04:30:12;;;;;;;14.15;10.25;;;;;;;7.43;100.00;100492.31;5002035;28;20091;-85
2022/04/30 04:32:38;;;;;;;16.48;9.85;;;;;;;7.53;100.00;100515.81;5011830;28;20033;-84
2022/04/30 04:35:04;;;;;;;17.20;9.45;;;;;;;7.46;100.00;100486.78;5020203;28;20029;-86
2022/04/30 04:37:31;;;;;;;17.00;9.00;;;;;;;7.58;100.00;100509.22;5011995;28;20104;-85
2022/04/30 04:39:57;;;;;;;15.73;8.93;;;;;;;7.54;100.00;100504.41;5011303;28;20558;-86
2022/04/30 04:42:23;;;;;;;16.17;8.43;;;;;;;7.50;100.00;100498.66;5000924;28;20034;-85
2022/04/30 04:44:49;;;;;;;12.07;8.35;;;;;;;7.41;100.00;100489.84;5000584;28;20037;-86
2022/04/30 04:47:15;;;;;;;17.83;8.18;;;;;;;7.43;100.00;100506.19;4999325;28;20081;-85
2022/04/30 04:49:42;;;;;;;14.50;8.40;;;;;;;7.29;100.00;100502.22;5011053;28;20078;-86
2022/04/30 04:52:11;;;;;;;11.27;8.07;;;;;;;7.14;100.00;100495.75;5010993;28;20030;-85
2022/04/30 04:54:36;;;;;;;10.95;7.57;;;;;;;7.11;100.00;100503.84;5000706;28;20392;-85
2022/04/30 04:57:02;;;;;;;14.05;8.25;;;;;;;7.00;100.00;100502.19;5020001;28;20034;-83
2022/04/30 04:59:28;;;;;;;11.02;7.72;;;;;;;6.97;100.00;100503.28;4997821;28;20049;-85
2022/04/30 05:01:54;;;;;;;13.90;9.13;;;;;;;6.98;100.00;100496.28;4999995;28;20111;-85
2022/04/30 05:04:20;;;;;;;10.88;8.05;;;;;;;7.08;100.00;100514.56;5001815;28;20136;-85
2022/04/30 05:06:48;;;;;;;12.27;7.97;;;;;;;7.06;100.00;100491.19;5018267;28;20048;-85
2022/04/30 05:09:14;;;;;;;14.43;7.75;;;;;;;7.24;100.00;100499.16;5010270;28;20080;-84
2022/04/30 05:11:41;;;;;;;11.02;7.95;;;;;;;7.20;100.00;100497.78;4997886;28;20057;-84
2022/04/30 05:14:06;;;;;;;11.38;6.82;;;;;;;7.51;100.00;100515.97;4999260;28;20133;-85
2022/04/30 05:16:32;;;;;;;11.05;7.22;;;;;;;7.67;100.00;100515.41;4999225;28;20084;-84
2022/04/30 05:18:58;;;;;;;12.77;7.53;;;;;;;7.58;100.00;100485.69;5001044;28;21450;-85
2022/04/30 05:21:25;;;;;;;12.60;6.93;;;;;;;7.71;100.00;100497.66;4999455;28;20038;-85
2022/04/30 05:23:52;;;;;;;10.45;7.22;;;;;;;7.89;100.00;100503.00;5009896;28;20026;-85
2022/04/30 05:26:18;;;;;;;11.65;6.75;;;;;;;8.01;100.00;100516.72;5004658;28;20037;-84
2022/04/30 05:28:43;;;;;;;11.00;6.38;;;;;;;8.07;100.00;100510.09;5011232;28;20408;-85
2022/04/30 05:31:09;;;;;;;11.27;6.85;;;;;;;8.09;100.00;100516.84;5004920;28;20116;-84
2022/04/30 05:33:35;;;;;;;10.40;6.53;;;;;;;8.17;100.00;100520.53;5005308;28;20057;-85
2022/04/30 05:36:03;;;;;;;10.48;6.55;;;;;;;8.03;100.00;100509.56;5014695;28;20428;-84
2022/04/30 05:38:28;;;;;;;7.43;5.80;;;;;;;7.98;100.00;100507.38;5004479;28;20049;-85
2022/04/30 05:40:54;;;;;;;13.60;6.65;;;;;;;8.05;100.00;100507.63;4989293;28;20059;-85
2022/04/30 05:43:19;;;;;;;11.40;7.15;;;;;;;8.09;100.00;100513.41;5013936;28;20030;-84
2022/04/30 05:45:45;;;;;;;8.65;6.70;;;;;;;8.15;100.00;100512.81;5003402;28;20044;-85
2022/04/30 05:48:11;;;;;;;10.13;6.93;;;;;;;8.18;100.00;100506.50;4997292;28;20103;-84
2022/04/30 05:50:37;;;;;;;14.43;7.55;;;;;;;8.32;100.00;100524.38;5003785;28;20455;-83
2022/04/30 05:53:04;;;;;;;8.50;6.15;;;;;;;8.27;100.00;100519.53;5007168;28;20025;-84
2022/04/30 05:55:31;;;;;;;11.25;7.07;;;;;;;8.33;100.00;100512.94;5020597;28;20022;-86
2022/04/30 05:57:56;;;;;;;8.23;6.45;;;;;;;8.26;100.00;100494.34;5013991;28;20030;-85
2022/04/30 06:00:22;;;;;;;12.70;7.03;;;;;;;8.46;100.00;100515.22;5013344;28;20080;-84
2022/04/30 06:02:48;;;;;;;8.90;6.78;;;;;;;8.60;100.00;100526.22;5023423;28;20026;-83
2022/04/30 06:05:14;;;;;;;11.93;7.07;;;;;;;8.56;100.00;100509.97;5022827;28;20030;-82
2022/04/30 06:07:41;;;;;;;10.85;6.63;;;;;;;8.76;100.00;100525.59;5018806;28;20029;-81
2022/04/30 06:10:06;;;;;;;7.65;6.03;;;;;;;8.75;100.00;100511.69;5013203;28;20045;-83
2022/04/30 06:12:34;;;;;;;7.70;6.30;;;;;;;8.82;100.00;100504.03;5021118;28;20029;-83
2022/04/30 06:15:01;;;;;;;8.27;6.07;;;;;;;8.95;100.00;100516.81;5000254;28;20072;-84
2022/04/30 06:17:27;;;;;;;10.10;7.18;;;;;;;9.14;100.00;100523.72;5010504;28;20033;-82
2022/04/30 06:19:52;;;;;;;10.20;7.97;;;;;;;9.23;100.00;100512.31;5002931;28;20455;-82
2022/04/30 06:22:18;;;;;;;14.18;8.20;;;;;;;9.38;100.00;100514.44;5013284;28;20054;-82
2022/04/30 06:24:44;;;;;;;12.00;8.35;;;;;;;9.52;100.00;100524.38;5013194;28;20031;-81
2022/04/30 06:27:09;;;;;;;13.57;9.10;;;;;;;9.62;100.00;100524.31;5001712;28;20113;-82
2022/04/30 06:29:35;;;;;;;14.60;10.02;;;;;;;9.57;100.00;100509.03;5022427;28;20022;-84
2022/04/30 06:32:01;;;;;;;13.70;8.82;;;;;;;9.76;100.00;100525.56;5008933;28;20105;-84
2022/04/30 06:34:28;;;;;;;16.88;9.15;;;;;;;9.55;100.00;100487.38;5002191;28;20500;-85
2022/04/30 06:36:53;;;;;;;11.35;8.88;;;;;;;9.69;100.00;100496.50;5026959;28;20146;-84
2022/04/30 06:39:19;;;;;;;14.27;9.20;;;;;;;9.94;100.00;100525.53;5003800;28;20060;-82
2022/04/30 06:41:45;;;;;;;14.82;9.35;;;;;;;9.93;100.00;100510.78;5000316;28;20072;-81
2022/04/30 06:44:10;;;;;;;12.68;9.18;;;;;;;10.04;100.00;100519.34;5013938;28;20029;-82
2022/04/30 06:46:36;;;;;;;11.27;8.38;;;;;;;10.03;100.00;100505.44;5004010;28;20435;-82
2022/04/30 06:49:02;;;;;;;13.48;9.55;;;;;;;10.27;100.00;100530.97;5013854;28;20041;-82
2022/04/30 06:51:27;;;;;;;10.52;7.90;;;;;;;10.15;100.00;100506.78;5012007;28;20034;-81
2022/04/30 06:59:22;;;;;;;16.45;10.55;;;;;;;10.49;98.39;100510.44;5012450;28;20045;-81
2022/04/30 07:02:07;;;;;;;14.80;9.43;;;;;;;10.58;98.97;100516.53;5003713;28;20046;-82
2022/04/30 07:04:32;;;;;;;16.50;9.13;;;;;;;10.67;98.17;100520.03;5013022;28;20116;-81
2022/04/30 07:06:59;;;;;;;11.27;7.50;;;;;;;10.67;97.61;100510.34;5011200;28;20152;-82
2022/04/30 07:09:28;;;;;;;10.05;6.68;;;;;;;10.81;96.56;100523.88;4993612;28;20049;-82
2022/04/30 07:11:54;;;;;;;9.75;6.95;;;;;;;10.85;94.93;100522.56;4990151;28;20389;-81
2022/04/30 07:14:20;;;;;;;13.25;7.63;;;;;;;10.84;94.02;100505.16;5019033;28;20046;-83
2022/04/30 07:16:46;;;;;;;10.23;7.05;;;;;;;11.05;93.39;100527.53;5002149;28;20167;-79
2022/04/30 07:19:14;;;;;;;13.30;7.80;;;;;;;11.17;93.48;100522.81;5003033;28;20038;-81
2022/04/30 07:21:40;;;;;;;12.40;7.65;;;;;;;11.26;92.21;100533.16;5000282;28;20101;-80
2022/04/30 07:24:05;;;;;;;12.82;7.05;;;;;;;11.36;92.25;100535.66;5013779;28;20025;-83
2022/04/30 07:26:31;;;;;;;12.02;7.28;;;;;;;11.31;91.25;100522.19;5021493;28;20030;-83
2022/04/30 07:28:56;;;;;;;8.95;7.88;;;;;;;11.46;91.40;100535.50;5005262;28;20033;-82
2022/04/30 07:31:22;;;;;;;12.05;8.35;;;;;;;11.50;90.95;100515.78;5012904;28;20045;-82
2022/04/30 07:33:49;;;;;;;9.20;7.22;;;;;;;11.58;90.65;100518.38;5012445;28;20030;-83
2022/04/30 07:36:15;;;;;;;8.23;6.90;;;;;;;11.65;90.48;100515.94;5002401;28;20033;-82
2022/04/30 07:38:40;;;;;;;11.02;6.97;;;;;;;11.83;89.42;100526.28;5002134;28;20091;-82
2022/04/30 07:41:07;;;;;;;9.60;6.65;;;;;;;11.93;88.53;100525.28;5017488;28;20072;-82
2022/04/30 07:43:32;;;;;;;10.85;6.90;;;;;;;11.93;88.23;100506.84;5003437;28;20057;-84
2022/04/30 07:45:58;;;;;;;10.32;7.32;;;;;;;12.06;87.22;100515.09;5001499;28;20074;-81
2022/04/30 07:48:23;;;;;;;8.35;6.93;;;;;;;12.21;86.08;100517.84;5003114;28;20466;-84
2022/04/30 07:50:49;;;;;;;8.82;6.47;;;;;;;12.25;85.14;100508.63;4985479;28;20561;-82
2022/04/30 07:53:15;;;;;;;8.70;6.88;;;;;;;12.43;84.87;100521.59;5018408;28;20018;-81
2022/04/30 07:55:43;;;;;;;8.95;6.50;;;;;;;12.46;84.60;100507.22;4998648;28;20025;-82
2022/04/30 07:58:09;;;;;;;8.05;6.95;;;;;;;12.51;83.06;100509.38;5017757;28;20034;-82
2022/04/30 08:00:35;;;;;;;9.38;6.22;;;;;;;12.59;83.54;100511.97;5001605;28;20054;-81
2022/04/30 08:03:01;;;;;;;9.32;7.07;;;;;;;12.54;82.88;100493.22;4984769;28;20041;-81
2022/04/30 08:05:27;;;;;;;8.50;7.03;;;;;;;12.64;82.36;100501.75;5003970;28;20030;-84
2022/04/30 08:07:56;;;;;;;8.02;6.55;;;;;;;12.78;83.13;100512.56;5018614;28;20488;-81
2022/04/30 08:10:22;;;;;;;7.65;6.68;;;;;;;12.76;82.20;100499.53;5021171;28;20026;-83
2022/04/30 08:12:55;;;;;;;8.18;6.68;;;;;;;12.95;82.58;100500.91;4992725;28;20029;-82
2022/04/30 08:15:27;;;;;;;8.52;6.90;;;;;;;13.00;82.70;100493.31;5020776;28;20053;-82
2022/04/30 08:17:53;;;;;;;7.20;6.28;;;;;;;13.02;82.02;100492.31;4990667;28;20030;-84
2022/04/30 08:20:19;;;;;;;7.22;6.22;;;;;;;13.18;81.48;100501.94;4999950;28;20038;-82
2022/04/30 08:22:45;;;;;;;9.25;6.25;;;;;;;13.01;78.98;100494.13;5019092;28;20026;-82
2022/04/30 08:25:13;;;;;;;13.52;6.13;;;;;;;13.24;79.22;100495.94;5000976;28;20438;-83
2022/04/30 08:27:40;;;;;;;6.10;5.35;;;;;;;13.28;78.61;100482.25;5004034;28;20058;-82
2022/04/30 08:30:07;;;;;;;9.23;5.95;;;;;;;13.46;76.53;100494.34;4996594;28;20066;-84
2022/04/30 08:32:32;;;;;;;8.27;5.53;;;;;;;13.51;78.97;100491.16;5005022;28;20022;-84
2022/04/30 08:35:01;;;;;;;6.68;5.03;;;;;;;13.48;75.23;100481.78;4987838;28;20029;-80
2022/04/30 08:37:27;;;;;;;8.98;5.85;;;;;;;13.29;73.65;100448.78;5002906;28;20127;-81
2022/04/30 08:39:52;;;;;;;5.88;5.35;;;;;;;13.50;74.12;100482.41;4998684;28;20431;-82
2022/04/30 08:42:23;;;;;;;7.50;5.68;;;;;;;13.59;77.21;100477.09;5001651;28;20034;-83
2022/04/30 08:44:48;;;;;;;5.57;4.97;;;;;;;13.74;78.98;100475.28;4982406;28;20492;-81
2022/04/30 08:47:14;;;;;;;8.15;5.40;;;;;;;13.83;77.56;100468.94;5001423;28;20049;-83
2022/04/30 08:49:42;;;;;;;9.45;5.75;;;;;;;13.87;76.42;100465.94;5005437;28;20034;-82
2022/04/30 08:52:12;;;;;;;9.20;6.05;;;;;;;13.83;76.08;100462.81;5011791;28;20058;-82
2022/04/30 08:54:38;;;;;;;7.47;5.70;;;;;;;13.97;75.29;100464.66;5015867;28;20069;-82
2022/04/30 08:57:10;;;;;;;8.25;5.50;;;;;;;14.03;74.83;100480.75;4987148;28;20042;-82
2022/04/30 08:59:36;;;;;;;6.22;5.50;;;;;;;13.49;74.01;100446.50;4996329;28;20095;-82
2022/04/30 09:02:09;;;;;;;9.15;6.22;;;;;;;13.74;73.61;100474.47;5005064;28;20030;-82
2022/04/30 09:05:01;;;;;;;11.30;6.30;;;;;;;13.17;73.27;100453.66;5023381;28;20084;-82
2022/04/30 09:07:26;;;;;;;6.75;6.15;;;;;;;13.59;74.44;100466.53;4999588;28;20064;-84
2022/04/30 09:09:55;;;;;;;9.10;6.45;;;;;;;13.94;73.88;100470.31;5027721;28;20030;-83
2022/04/30 09:12:20;;;;;;;7.82;5.90;;;;;;;13.64;73.41;100443.88;5005083;28;20033;-81
2022/04/30 09:14:47;;;;;;;7.20;6.22;;;;;;;13.48;74.29;100460.69;5009003;28;20039;-82
2022/04/30 09:17:15;;;;;;;10.07;6.80;;;;;;;13.38;72.95;100428.44;5017388;28;20064;-82
2022/04/30 09:19:59;;;;;;;8.68;6.32;;;;;;;13.85;74.48;100456.38;5020518;28;20025;-81
2022/04/30 09:22:30;;;;;;;8.20;5.68;;;;;;;13.70;74.14;100459.00;4989013;28;20562;-82
2022/04/30 09:25:07;;;;;;;8.63;5.93;;;;;;;13.77;75.51;100431.88;5015741;28;20026;-82
2022/04/30 09:27:47;;;;;;;7.00;6.28;;;;;;;13.79;73.72;100459.75;5018756;28;20117;-81
2022/04/30 09:30:22;;;;;;;7.30;5.60;;;;;;;13.69;74.49;100456.53;5003984;28;20033;-81
2022/04/30 09:33:02;;;;;;;8.73;6.28;;;;;;;14.12;75.36;100451.44;5019606;28;20052;-83
2022/04/30 09:38:13;;;;;;;6.90;5.97;;;;;;;13.91;73.21;100446.09;5005526;28;20030;-83
2022/04/30 09:40:39;;;;;;;12.38;7.13;;;;;;;14.13;73.17;100437.25;5002750;28;20484;-85
2022/04/30 09:43:15;;;;;;;10.25;6.75;;;;;;;13.93;73.07;100394.75;5002553;28;20037;-85
2022/04/30 09:45:41;;;;;;;8.75;6.60;;;;;;;14.11;72.37;100407.56;5005732;28;20061;-83
2022/04/30 09:53:56;;;;;;;7.35;5.93;;;;;;;14.46;73.55;100422.00;5019168;28;20053;-84
2022/04/30 09:53:57;;;;;;;6.38;5.78;;;;;;;14.57;73.81;100447.94;5010292;28;20038;-84
2022/04/30 09:56:45;;;;;;;7.45;5.97;;;;;;;14.71;70.35;100431.25;5003765;28;20053;-85
2022/04/30 09:59:13;;;;;;;9.63;6.88;;;;;;;14.48;70.11;100427.91;5006415;28;20507;-85
2022/04/30 10:01:41;;;;;;;7.68;6.18;;;;;;;14.53;70.74;100426.34;5015602;28;20044;-84
2022/04/30 10:04:17;;;;;;;7.20;6.45;;;;;;;14.70;72.27;100408.44;5015367;28;20033;-86
2022/04/30 10:06:44;;;;;;;8.98;6.97;;;;;;;14.98;69.92;100428.03;5003442;28;20066;-85
2022/04/30 10:09:16;;;;;;;9.05;6.75;;;;;;;14.81;70.39;100401.06;5014849;28;20472;-86
2022/04/30 10:11:54;;;;;;;9.43;6.72;;;;;;;14.67;72.19;100405.38;5000465;28;20045;-85
2022/04/30 10:14:53;;;;;;;10.77;7.85;;;;;;;15.07;72.34;100410.22;5013508;28;20050;-84
2022/04/30 10:17:20;;;;;;;10.30;7.30;;;;;;;15.20;72.16;100383.91;4996960;28;20042;-82
2022/04/30 10:20:18;;;;;;;10.57;7.72;;;;;;;14.90;68.87;100407.84;5008505;28;20109;-83
2022/04/30 10:22:54;;;;;;;8.88;7.97;;;;;;;15.01;69.90;100405.72;5017039;28;20092;-84
2022/04/30 10:25:42;;;;;;;9.48;6.93;;;;;;;15.26;71.17;100411.41;5015294;28;20038;-85
2022/04/30 10:28:23;;;;;;;11.65;8.00;;;;;;;15.47;70.16;100391.22;5011307;28;20125;-84
2022/04/30 10:31:10;;;;;;;9.23;8.32;;;;;;;15.71;71.15;100401.34;5019670;28;20557;-83
2022/04/30 10:33:47;;;;;;;9.82;8.82;;;;;;;15.79;70.47;100388.94;5004743;28;20113;-82
2022/04/30 10:36:13;;;;;;;13.02;9.40;;;;;;;15.74;71.77;100389.53;5018797;28;20030;-82
2022/04/30 10:38:39;;;;;;;11.18;8.70;;;;;;;16.17;73.36;100390.38;4991590;28;20037;-83
2022/04/30 10:41:08;;;;;;;9.00;8.07;;;;;;;16.12;68.11;100386.50;5012180;28;20057;-84
2022/04/30 10:43:38;;;;;;;9.65;8.65;;;;;;;16.03;68.98;100377.06;5021647;28;20038;-86
2022/04/30 10:46:13;;;;;;;12.00;8.25;;;;;;;15.79;67.10;100375.69;4991383;28;20030;-85
2022/04/30 10:48:38;;;;;;;9.75;8.32;;;;;;;15.47;68.34;100368.19;4999633;28;20087;-87
2022/04/30 10:51:06;;;;;;;10.60;7.40;;;;;;;16.07;72.76;100367.72;5006381;28;20026;-83
2022/04/30 10:53:34;;;;;;;9.10;7.78;;;;;;;16.22;72.25;100361.47;5013679;28;20026;-84
2022/04/30 10:56:04;;;;;;;9.27;8.18;;;;;;;15.90;68.79;100371.72;5022336;28;20129;-82
2022/04/30 10:58:34;;;;;;;9.25;7.93;;;;;;;16.17;70.20;100338.19;5014408;28;20372;-84
2022/04/30 11:01:16;;;;;;;9.35;7.85;;;;;;;16.36;70.42;100349.88;5000872;28;20553;-82
2022/04/30 11:03:49;;;;;;;10.27;8.32;;;;;;;16.55;67.50;100358.06;5017177;28;20034;-81
2022/04/30 11:06:26;;;;;;;8.35;7.32;;;;;;;16.88;68.26;100354.63;5014713;28;20040;-82
2022/04/30 11:09:03;;;;;;;10.43;7.68;;;;;;;17.00;69.91;100336.31;4995885;28;20026;-84
2022/04/30 11:11:29;;;;;;;9.25;7.85;;;;;;;17.29;69.36;100323.63;5007045;28;20044;-84
2022/04/30 11:14:03;;;;;;;8.73;7.82;;;;;;;17.45;68.92;100335.63;5000490;28;20074;-83
2022/04/30 11:16:41;;;;;;;9.57;7.55;;;;;;;17.71;69.04;100331.28;5000479;28;20129;-82
2022/04/30 11:19:11;;;;;;;10.13;7.95;;;;;;;17.37;65.91;100323.38;5012474;28;20061;-82
2022/04/30 11:21:39;;;;;;;10.25;7.30;;;;;;;17.38;65.03;100305.63;5017272;28;20057;-83
2022/04/30 11:24:06;;;;;;;8.77;7.85;;;;;;;17.35;66.17;100304.19;5005480;28;20025;-84
2022/04/30 11:26:43;;;;;;;11.55;8.32;;;;;;;17.95;68.27;100305.81;5021953;28;20034;-84
2022/04/30 11:29:13;;;;;;;12.48;8.30;;;;;;;18.06;66.49;100304.34;5010085;28;20030;-83
2022/04/30 11:31:41;;;;;;;9.40;7.18;;;;;;;18.44;67.10;100305.34;5012240;28;20080;-83
2022/04/30 11:34:17;;;;;;;10.27;7.80;;;;;;;18.67;65.41;100298.63;5013294;28;20030;-84
2022/04/30 11:36:44;;;;;;;11.98;7.90;;;;;;;18.94;64.93;100307.22;5013412;28;20036;-84
2022/04/30 11:39:11;;;;;;;12.45;8.90;;;;;;;17.70;64.96;100295.13;5016259;28;20037;-81
2022/04/30 11:41:40;;;;;;;10.65;7.50;;;;;;;18.39;65.30;100278.63;5022362;28;20427;-83
2022/04/30 11:44:08;;;;;;;8.98;8.07;;;;;;;18.75;67.10;100292.25;5017831;28;20056;-83
2022/04/30 11:46:43;;;;;;;11.15;8.20;;;;;;;18.67;65.68;100283.50;5012523;28;20042;-83
2022/04/30 11:49:32;;;;;;;12.52;8.18;;;;;;;18.86;65.85;100283.53;5005263;28;20041;-83
2022/04/30 11:51:59;;;;;;;8.27;7.40;;;;;;;18.04;64.90;100273.72;5013800;28;20037;-84
2022/04/30 11:54:27;;;;;;;8.27;6.78;;;;;;;17.77;65.07;100220.72;5013483;28;20480;-84
2022/04/30 11:56:53;;;;;;;9.45;6.53;;;;;;;18.04;62.06;100266.56;5020363;28;20053;-84
2022/04/30 11:59:30;;;;;;;9.15;7.35;;;;;;;18.00;62.10;100268.00;5022442;28;20026;-85